createdAt,value
2023-02-24T00:02:05.682Z,96983.13
2023-02-24T00:04:40.195Z,96978.69
2023-02-24T00:07:11.029Z,96977.61
2023-02-24T00:09:40.506Z,96975.19
2023-02-24T00:12:13.417Z,96972.70
2023-02-24T00:14:45.355Z,96971.38
2023-02-24T00:17:17.212Z,96973.10
2023-02-24T00:19:46.732Z,96975.21
2023-02-24T00:22:15.260Z,96969.98
2023-02-24T00:24:43.482Z,96969.08
2023-02-24T00:27:12.428Z,96965.85
2023-02-24T00:29:42.246Z,96963.23
2023-02-24T00:32:13.833Z,96961.06
2023-02-24T00:34:43.264Z,96956.19
2023-02-24T00:37:12.287Z,96953.27
2023-02-24T00:39:41.970Z,96952.21
2023-02-24T00:42:12.588Z,96949.70
2023-02-24T00:44:46.068Z,96945.98
2023-02-24T00:47:17.644Z,96944.20
2023-02-24T00:49:46.354Z,96942.70
2023-02-24T00:52:19.091Z,96943.94
2023-02-24T00:54:52.150Z,96942.56
2023-02-24T00:57:21.909Z,96940.01
2023-02-24T00:59:54.382Z,96936.35
2023-02-24T01:02:22.617Z,96938.73
2023-02-24T01:04:52.956Z,96937.60
2023-02-24T01:07:21.964Z,96939.91
2023-02-24T01:09:51.107Z,96937.77
2023-02-24T01:12:22.231Z,96932.34
2023-02-24T01:14:52.805Z,96930.29
2023-02-24T01:17:22.348Z,96926.39
2023-02-24T01:19:50.881Z,96923.71
2023-02-24T01:22:21.238Z,96924.21
2023-02-24T01:24:50.839Z,96922.95
2023-02-24T01:27:19.645Z,96921.02
2023-02-24T01:29:49.160Z,96918.96
2023-02-24T01:32:22.232Z,96914.45
2023-02-24T01:34:53.707Z,96912.98
2023-02-24T01:37:24.265Z,96911.42
2023-02-24T01:39:52.382Z,96910.09
2023-02-24T01:42:22.569Z,96902.18
2023-02-24T01:44:52.158Z,96901.83
2023-02-24T01:47:22.304Z,96894.79
2023-02-24T01:49:54.821Z,96897.73
2023-02-24T01:52:43.511Z,96894.52
2023-02-24T01:55:29.440Z,96892.32
2023-02-24T01:58:01.163Z,96894.09
2023-02-24T02:00:37.915Z,96890.38
2023-02-24T02:03:30.735Z,96887.84
2023-02-24T02:06:10.876Z,96884.73
2023-02-24T02:08:42.019Z,96881.30
2023-02-24T02:11:20.700Z,96879.91
2023-02-24T02:13:53.289Z,96877.52
2023-02-24T02:16:51.587Z,96881.47
2023-02-24T02:19:41.770Z,96881.73
2023-02-24T02:22:26.796Z,96878.77
2023-02-24T02:25:28.795Z,96876.98
2023-02-24T02:28:17.053Z,96876.48
2023-02-24T02:31:13.002Z,96873.25
2023-02-24T02:34:00.299Z,96873.02
2023-02-24T02:36:52.777Z,96874.19
2023-02-24T02:39:30.674Z,96873.52
2023-02-24T02:42:05.172Z,96873.17
2023-02-24T02:44:40.044Z,96873.79
2023-02-24T02:47:35.916Z,96873.80
2023-02-24T02:50:18.892Z,96872.66
2023-02-24T02:52:57.940Z,96874.20
2023-02-24T02:55:33.839Z,96873.56
2023-02-24T02:58:09.255Z,96873.48
2023-02-24T03:00:51.575Z,96871.41
2023-02-24T03:03:21.164Z,96867.52
2023-02-24T03:05:57.563Z,96871.13
2023-02-24T03:08:31.081Z,96864.20
2023-02-24T03:11:02.997Z,96868.58
2023-02-24T03:13:36.937Z,96867.64
2023-02-24T03:16:06.813Z,96868.16
2023-02-24T03:18:45.454Z,96865.92
2023-02-24T03:21:24.585Z,96865.69
2023-02-24T03:23:53.947Z,96862.24
2023-02-24T03:26:52.800Z,96858.91
2023-02-24T03:30:01.694Z,96859.02
2023-02-24T03:32:44.029Z,96854.45
2023-02-24T03:35:38.052Z,96850.13
2023-02-24T03:38:10.331Z,96847.91
2023-02-24T03:40:39.884Z,96846.15
2023-02-24T03:43:17.973Z,96844.74
2023-02-24T03:45:46.891Z,96841.56
2023-02-24T03:48:16.593Z,96846.57
2023-02-24T03:50:46.800Z,96844.24
2023-02-24T03:53:59.862Z,96843.19
2023-02-24T03:56:40.826Z,96837.88
2023-02-24T03:59:18.909Z,96837.52
2023-02-24T04:01:51.937Z,96833.74
2023-02-24T04:04:38.198Z,96827.22
2023-02-24T04:07:26.917Z,96825.73
2023-02-24T04:10:10.509Z,96824.52
2023-02-24T04:12:39.563Z,96824.39
2023-02-24T04:15:21.018Z,96820.73
2023-02-24T04:18:07.365Z,96824.13
2023-02-24T04:20:40.377Z,96821.20
2023-02-24T04:23:16.870Z,96820.85
2023-02-24T04:25:49.819Z,96817.95
2023-02-24T04:28:23.027Z,96817.30
2023-02-24T04:30:57.644Z,96818.36
2023-02-24T04:33:26.563Z,96821.75
2023-02-24T04:35:55.996Z,96823.98
2023-02-24T04:38:25.414Z,96822.96
2023-02-24T04:40:55.459Z,96815.13
2023-02-24T04:43:23.706Z,96816.15
2023-02-24T04:45:52.507Z,96813.80
2023-02-24T04:48:20.793Z,96815.07
2023-02-24T04:50:55.318Z,96816.16
2023-02-24T04:53:27.241Z,96821.65
2023-02-24T04:55:56.501Z,96823.49
2023-02-24T04:58:29.542Z,96818.22
2023-02-24T05:00:57.837Z,96815.69
2023-02-24T05:03:30.178Z,96818.44
2023-02-24T05:06:00.474Z,96816.61
2023-02-24T05:08:30.742Z,96818.31
2023-02-24T05:11:01.203Z,96812.04
2023-02-24T05:13:32.028Z,96808.33
2023-02-24T05:16:08.276Z,96808.17
2023-02-24T05:18:38.784Z,96805.45
2023-02-24T05:21:32.297Z,96802.21
2023-02-24T05:24:11.698Z,96803.39
2023-02-24T05:26:41.999Z,96801.13
2023-02-24T05:29:12.563Z,96797.74
2023-02-24T05:31:42.047Z,96799.45
2023-02-24T05:34:16.324Z,96799.55
2023-02-24T05:36:59.756Z,96798.16
2023-02-24T05:39:30.293Z,96802.77
2023-02-24T05:42:05.959Z,96802.45
2023-02-24T05:44:35.807Z,96801.78
2023-02-24T05:47:05.930Z,96795.64
2023-02-24T05:49:35.411Z,96798.84
2023-02-24T05:52:09.120Z,96798.68
2023-02-24T05:54:42.789Z,96799.52
2023-02-24T05:57:17.189Z,96796.09
2023-02-24T05:59:46.070Z,96796.95
2023-02-24T06:02:16.756Z,96797.81
2023-02-24T06:04:54.275Z,96797.14
2023-02-24T06:07:34.678Z,96796.34
2023-02-24T06:10:07.346Z,96790.78
2023-02-24T06:12:40.059Z,96790.81
2023-02-24T06:15:08.762Z,96791.33
2023-02-24T06:17:39.397Z,96790.83
2023-02-24T06:20:15.817Z,96790.62
2023-02-24T06:22:44.294Z,96790.59
2023-02-24T06:25:12.578Z,96790.95
2023-02-24T06:27:41.141Z,96787.14
2023-02-24T06:30:10.607Z,96788.98
2023-02-24T06:32:39.533Z,96789.55
2023-02-24T06:35:08.974Z,96788.83
2023-02-24T06:37:37.325Z,96789.48
2023-02-24T06:40:15.994Z,96790.44
2023-02-24T06:42:54.429Z,96794.20
2023-02-24T06:45:24.606Z,96798.84
2023-02-24T06:47:52.864Z,96796.25
2023-02-24T06:50:22.006Z,96793.66
2023-02-24T06:52:50.662Z,96793.60
2023-02-24T06:55:28.532Z,96791.84
2023-02-24T06:58:04.719Z,96784.80
2023-02-24T07:00:41.219Z,96781.50
2023-02-24T07:03:15.134Z,96780.94
2023-02-24T07:05:50.511Z,96778.98
2023-02-24T07:08:21.270Z,96778.94
2023-02-24T07:10:56.068Z,96775.46
2023-02-24T07:13:30.094Z,96771.08
2023-02-24T07:16:07.293Z,96769.99
2023-02-24T07:18:40.617Z,96768.39
2023-02-24T07:21:12.918Z,96768.81
2023-02-24T07:23:42.021Z,96767.70
2023-02-24T07:26:13.455Z,96766.24
2023-02-24T07:28:44.545Z,96763.08
2023-02-24T07:31:17.387Z,96758.85
2023-02-24T07:33:46.840Z,96762.91
2023-02-24T07:36:23.431Z,96756.53
2023-02-24T07:38:53.666Z,96759.57
2023-02-24T07:41:23.781Z,96756.23
2023-02-24T07:43:55.318Z,96752.27
2023-02-24T07:46:28.078Z,96753.23
2023-02-24T07:48:59.972Z,96749.58
2023-02-24T07:51:29.908Z,96747.43
2023-02-24T07:54:00.745Z,96744.05
2023-02-24T07:56:31.283Z,96743.80
2023-02-24T07:59:09.906Z,96744.14
2023-02-24T08:01:42.040Z,96741.80
2023-02-24T08:04:16.558Z,96741.46
2023-02-24T08:06:48.066Z,96737.04
2023-02-24T08:09:19.667Z,96732.04
2023-02-24T08:11:53.925Z,96727.91
2023-02-24T08:14:32.984Z,96721.86
2023-02-24T08:17:05.681Z,96716.98
2023-02-24T08:19:39.643Z,96716.16
2023-02-24T08:22:19.911Z,96715.01
2023-02-24T08:25:06.008Z,96713.59
2023-02-24T08:27:39.207Z,96706.16
2023-02-24T08:30:09.955Z,96709.14
2023-02-24T08:32:45.236Z,96711.48
2023-02-24T08:35:16.324Z,96709.02
2023-02-24T08:37:47.841Z,96705.19
2023-02-24T08:40:34.562Z,96706.63
2023-02-24T08:43:17.681Z,96704.11
2023-02-24T08:45:52.133Z,96700.25
2023-02-24T08:48:31.194Z,96692.08
2023-02-24T08:51:04.760Z,96691.14
2023-02-24T08:53:33.676Z,96689.47
2023-02-24T08:56:12.460Z,96686.65
2023-02-24T08:58:49.580Z,96683.45
2023-02-24T09:01:24.702Z,96675.87
2023-02-24T09:03:58.984Z,96671.52
2023-02-24T09:06:43.566Z,96671.27
2023-02-24T09:09:18.932Z,96672.38
2023-02-24T09:11:49.566Z,96671.45
2023-02-24T09:14:28.950Z,96670.04
2023-02-24T09:17:03.647Z,96664.14
2023-02-24T09:19:40.929Z,96662.98
2023-02-24T09:22:30.276Z,96665.84
2023-02-24T09:25:21.501Z,96666.38
2023-02-24T09:28:09.093Z,96660.36
2023-02-24T09:30:51.714Z,96661.32
2023-02-24T09:33:23.694Z,96659.38
2023-02-24T09:36:10.895Z,96656.23
2023-02-24T09:39:03.331Z,96655.30
2023-02-24T09:41:59.099Z,96652.14
2023-02-24T09:44:37.836Z,96652.66
2023-02-24T09:47:40.012Z,96651.73
2023-02-24T09:50:14.703Z,96651.31
2023-02-24T09:52:43.288Z,96646.34
2023-02-24T09:55:46.242Z,96645.83
2023-02-24T09:58:43.711Z,96644.05
2023-02-24T10:01:43.018Z,96642.30
2023-02-24T10:04:53.993Z,96635.70
2023-02-24T10:07:38.662Z,96631.48
2023-02-24T10:10:30.521Z,96632.61
2023-02-24T10:13:14.050Z,96628.56
2023-02-24T10:15:58.372Z,96623.56
2023-02-24T10:18:28.750Z,96612.98
2023-02-24T10:21:15.754Z,96604.70
2023-02-24T10:24:02.525Z,96599.16
2023-02-24T10:26:59.639Z,96591.19
2023-02-24T10:29:32.653Z,96586.84
2023-02-24T10:32:24.339Z,96584.05
2023-02-24T10:34:53.538Z,96586.45
2023-02-24T10:37:29.210Z,96581.02
2023-02-24T10:40:01.164Z,96574.78
2023-02-24T10:42:33.665Z,96570.73
2023-02-24T10:45:17.334Z,96570.82
2023-02-24T10:47:58.046Z,96566.32
2023-02-24T10:50:34.793Z,96560.60
2023-02-24T10:53:34.136Z,96552.64
2023-02-24T10:56:26.647Z,96546.68
2023-02-24T10:59:25.576Z,96541.14
2023-02-24T11:02:06.826Z,96516.70
2023-02-24T11:04:58.065Z,96511.30
2023-02-24T11:07:33.745Z,96503.88
2023-02-24T11:10:26.280Z,96503.33
2023-02-24T11:13:15.820Z,96504.05
2023-02-24T11:16:12.273Z,96489.23
2023-02-24T11:18:46.514Z,96483.71
2023-02-24T11:21:17.629Z,96482.42
2023-02-24T11:23:56.943Z,96474.80
2023-02-24T11:26:45.558Z,96468.52
2023-02-24T11:29:45.963Z,96472.21
2023-02-24T11:32:39.782Z,96461.73
2023-02-24T11:35:22.961Z,96454.86
2023-02-24T11:38:16.196Z,96453.52
2023-02-24T11:40:49.353Z,96447.02
2023-02-24T11:43:27.031Z,96443.34
2023-02-24T11:46:02.309Z,96442.06
2023-02-24T11:48:36.325Z,96438.95
2023-02-24T11:51:16.721Z,96434.48
2023-02-24T11:53:53.999Z,96435.70
2023-02-24T11:56:22.999Z,96434.50
2023-02-24T11:59:11.361Z,96427.95
2023-02-24T12:01:48.417Z,96416.63
2023-02-24T12:04:32.701Z,96415.09
2023-02-24T12:07:23.521Z,96417.79
2023-02-24T12:10:16.158Z,96415.37
2023-02-24T12:12:57.113Z,96411.55
2023-02-24T12:15:55.485Z,96409.60
2023-02-24T12:18:30.987Z,96405.39
2023-02-24T12:21:03.152Z,96402.14
2023-02-24T12:23:40.072Z,96397.61
2023-02-24T12:26:28.929Z,96392.69
2023-02-24T12:29:18.864Z,96386.85
2023-02-24T12:32:30.536Z,96383.40
2023-02-24T12:35:07.479Z,96378.14
2023-02-24T12:37:59.390Z,96377.42
2023-02-24T12:40:53.368Z,96370.19
2023-02-24T12:43:50.226Z,96371.34
2023-02-24T12:46:31.389Z,96363.39
2023-02-24T12:49:19.642Z,96356.62
2023-02-24T12:52:08.006Z,96348.88
2023-02-24T12:54:46.436Z,96349.15
2023-02-24T12:57:25.579Z,96349.84
2023-02-24T12:59:57.044Z,96348.08
2023-02-24T13:02:55.983Z,96352.02
2023-02-24T13:05:51.897Z,96348.52
2023-02-24T13:08:39.833Z,96343.00
2023-02-24T13:11:16.648Z,96342.39
2023-02-24T13:13:56.711Z,96337.30
2023-02-24T13:16:34.727Z,96333.89
2023-02-24T13:19:17.794Z,96331.13
2023-02-24T13:22:17.128Z,96328.93
2023-02-24T13:24:55.133Z,96326.45
2023-02-24T13:27:25.623Z,96326.45
2023-02-24T13:30:01.086Z,96326.31
2023-02-24T13:32:42.710Z,96328.38
2023-02-24T13:35:14.488Z,96322.57
2023-02-24T13:37:46.180Z,96319.46
2023-02-24T13:40:17.830Z,96318.48
2023-02-24T13:43:00.852Z,96315.23
2023-02-24T13:45:35.266Z,96319.58
2023-02-24T13:48:30.170Z,96319.56
2023-02-24T13:51:37.519Z,96314.02
2023-02-24T13:54:36.286Z,96310.89
2023-02-24T13:57:40.141Z,96309.86
2023-02-24T14:00:22.835Z,96306.33
2023-02-24T14:02:53.256Z,96305.05
2023-02-24T14:05:36.039Z,96305.64
2023-02-24T14:08:05.309Z,96302.09
2023-02-24T14:10:37.014Z,96305.79
2023-02-24T14:13:16.859Z,96304.71
2023-02-24T14:15:47.757Z,96302.50
2023-02-24T14:18:25.892Z,96300.87
2023-02-24T14:20:56.501Z,96298.23
2023-02-24T14:23:27.480Z,96298.31
2023-02-24T14:26:00.537Z,96300.02
2023-02-24T14:28:38.326Z,96297.19
2023-02-24T14:31:12.782Z,96293.32
2023-02-24T14:33:42.996Z,96289.01
2023-02-24T14:36:21.898Z,96288.39
2023-02-24T14:39:19.970Z,96287.11
2023-02-24T14:41:50.685Z,96291.25
2023-02-24T14:44:24.469Z,96286.47
2023-02-24T14:47:00.243Z,96280.52
2023-02-24T14:49:30.452Z,96280.80
2023-02-24T14:52:07.546Z,96281.41
2023-02-24T14:54:48.893Z,96281.95
2023-02-24T14:57:25.486Z,96280.34
2023-02-24T15:00:00.122Z,96277.02
2023-02-24T15:02:33.727Z,96273.09
2023-02-24T15:05:02.052Z,96270.75
2023-02-24T15:07:33.772Z,96264.75
2023-02-24T15:10:04.734Z,96259.84
2023-02-24T15:12:46.567Z,96263.66
2023-02-24T15:15:24.171Z,96260.83
2023-02-24T15:18:12.402Z,96260.17
2023-02-24T15:20:42.596Z,96255.03
2023-02-24T15:23:27.632Z,96251.62
2023-02-24T15:25:56.108Z,96245.15
2023-02-24T15:28:31.703Z,96243.00
2023-02-24T15:31:05.264Z,96236.03
2023-02-24T15:33:40.929Z,96225.65
2023-02-24T15:36:19.887Z,96232.10
2023-02-24T15:38:53.046Z,96233.91
2023-02-24T15:41:21.678Z,96234.45
2023-02-24T15:43:56.232Z,96229.60
2023-02-24T15:46:30.003Z,96227.48
2023-02-24T15:49:03.153Z,96228.59
2023-02-24T15:51:41.713Z,96228.72
2023-02-24T15:54:36.373Z,96225.23
2023-02-24T15:57:05.981Z,96230.39
2023-02-24T15:59:34.922Z,96232.85
2023-02-24T16:02:05.311Z,96238.00
2023-02-24T16:04:34.573Z,96239.20
2023-02-24T16:07:04.188Z,96232.57
2023-02-24T16:09:37.297Z,96227.55
2023-02-24T16:12:18.544Z,96224.84
2023-02-24T16:14:56.022Z,96220.52
2023-02-24T16:17:35.173Z,96227.36
2023-02-24T16:20:08.641Z,96229.94
2023-02-24T16:22:37.490Z,96225.84
2023-02-24T16:25:06.622Z,96225.85
2023-02-24T16:27:35.893Z,96225.06
2023-02-24T16:30:04.381Z,96226.56
2023-02-24T16:32:33.242Z,96220.83
2023-02-24T16:35:02.698Z,96213.22
2023-02-24T16:37:30.869Z,96220.11
2023-02-24T16:39:59.668Z,96222.13
2023-02-24T16:42:28.097Z,96220.66
2023-02-24T16:44:57.654Z,96224.64
2023-02-24T16:47:26.537Z,96227.20
2023-02-24T16:49:58.489Z,96226.95
2023-02-24T16:52:28.710Z,96224.92
2023-02-24T16:54:56.946Z,96228.06
2023-02-24T16:57:25.942Z,96234.22
2023-02-24T16:59:54.679Z,96227.22
2023-02-24T17:02:26.019Z,96223.56
2023-02-24T17:04:54.385Z,96218.40
2023-02-24T17:07:22.754Z,96217.33
2023-02-24T17:09:51.077Z,96216.52
2023-02-24T17:12:22.218Z,96208.83
2023-02-24T17:14:50.775Z,96201.44
2023-02-24T17:17:21.575Z,96191.92
2023-02-24T17:19:49.824Z,96203.35
2023-02-24T17:22:18.568Z,96191.96
2023-02-24T17:24:46.725Z,96189.88
2023-02-24T17:27:14.992Z,96189.88
2023-02-24T17:29:43.505Z,96187.96
2023-02-24T17:32:12.391Z,96193.69
2023-02-24T17:34:41.552Z,96200.21
2023-02-24T17:37:10.712Z,96188.36
2023-02-24T17:39:39.281Z,96181.27
2023-02-24T17:42:07.529Z,96179.55
2023-02-24T17:44:36.223Z,96175.35
2023-02-24T17:47:06.596Z,96178.17
2023-02-24T17:49:35.604Z,96176.38
2023-02-24T17:52:06.265Z,96177.98
2023-02-24T17:54:34.688Z,96168.14
2023-02-24T17:57:03.098Z,96174.06
2023-02-24T17:59:31.657Z,96159.25
2023-02-24T18:02:02.210Z,96158.59
2023-02-24T18:04:32.060Z,96168.70
2023-02-24T18:07:01.218Z,96156.88
2023-02-24T18:09:29.927Z,96155.84
2023-02-24T18:11:58.447Z,96152.94
2023-02-24T18:14:26.635Z,96145.98
2023-02-24T18:16:55.479Z,96145.54
2023-02-24T18:19:24.169Z,96141.85
2023-02-24T18:21:53.731Z,96145.37
2023-02-24T18:24:22.986Z,96140.94
2023-02-24T18:26:51.328Z,96144.23
2023-02-24T18:29:19.758Z,96147.01
2023-02-24T18:31:51.297Z,96148.58
2023-02-24T18:34:20.024Z,96147.06
2023-02-24T18:36:48.614Z,96137.84
2023-02-24T18:39:18.274Z,96140.48
2023-02-24T18:41:46.548Z,96141.96
2023-02-24T18:44:14.743Z,96139.33
2023-02-24T18:46:42.974Z,96142.17
2023-02-24T18:49:12.853Z,96142.36
2023-02-24T18:51:42.544Z,96131.14
2023-02-24T18:54:11.747Z,96129.63
2023-02-24T18:56:40.819Z,96131.20
2023-02-24T18:59:09.336Z,96130.30
2023-02-24T19:01:39.318Z,96133.52
2023-02-24T19:04:08.802Z,96127.91
2023-02-24T19:06:38.700Z,96125.45
2023-02-24T19:09:10.911Z,96129.38
2023-02-24T19:11:41.617Z,96125.98
2023-02-24T19:14:13.590Z,96115.61
2023-02-24T19:16:42.731Z,96120.85
2023-02-24T19:19:16.677Z,96119.62
2023-02-24T19:21:46.261Z,96118.54
2023-02-24T19:24:16.548Z,96111.77
2023-02-24T19:26:46.059Z,96119.61
2023-02-24T19:29:14.658Z,96115.27
2023-02-24T19:31:44.170Z,96112.27
2023-02-24T19:34:15.356Z,96105.53
2023-02-24T19:36:43.877Z,96097.39
2023-02-24T19:39:15.379Z,96095.67
2023-02-24T19:41:43.839Z,96101.98
2023-02-24T19:44:12.772Z,96099.44
2023-02-24T19:46:42.217Z,96097.93
2023-02-24T19:49:10.570Z,96094.76
2023-02-24T19:51:40.304Z,96088.30
2023-02-24T19:54:13.905Z,96082.07
2023-02-24T19:56:42.162Z,96078.33
2023-02-24T19:59:11.411Z,96077.65
2023-02-24T20:01:40.530Z,96077.92
2023-02-24T20:04:09.547Z,96077.98
2023-02-24T20:06:41.182Z,96077.15
2023-02-24T20:09:15.715Z,96073.44
2023-02-24T20:11:45.792Z,96070.29
2023-02-24T20:14:16.926Z,96074.13
2023-02-24T20:16:45.488Z,96073.77
2023-02-24T20:19:15.283Z,96070.95
2023-02-24T20:21:44.234Z,96060.54
2023-02-24T20:24:15.586Z,96058.60
2023-02-24T20:26:47.354Z,96052.70
2023-02-24T20:29:16.976Z,96047.28
2023-02-24T20:31:46.776Z,96042.19
2023-02-24T20:34:16.779Z,96046.91
2023-02-24T20:36:46.206Z,96051.54
2023-02-24T20:39:14.574Z,96052.09
2023-02-24T20:41:44.214Z,96054.90
2023-02-24T20:44:12.939Z,96049.52
2023-02-24T20:46:42.524Z,96042.70
2023-02-24T20:49:14.948Z,96028.99
2023-02-24T20:51:44.094Z,96029.27
2023-02-24T20:54:13.865Z,96024.98
2023-02-24T20:56:44.307Z,96024.34
2023-02-24T20:59:19.610Z,96016.54
2023-02-24T21:01:49.139Z,96015.48
2023-02-24T21:04:20.461Z,96016.59
2023-02-24T21:06:51.534Z,96021.27
2023-02-24T21:09:19.872Z,96012.45
2023-02-24T21:11:49.122Z,96005.08
2023-02-24T21:14:18.285Z,96002.45
2023-02-24T21:16:46.773Z,95996.73
2023-02-24T21:19:15.376Z,95989.05
2023-02-24T21:21:44.252Z,95995.96
2023-02-24T21:24:12.622Z,95987.97
2023-02-24T21:26:40.752Z,95997.80
2023-02-24T21:29:09.256Z,95991.95
2023-02-24T21:31:38.057Z,95993.70
2023-02-24T21:34:06.503Z,95981.96
2023-02-24T21:36:35.242Z,95979.95
2023-02-24T21:39:06.749Z,95972.26
2023-02-24T21:41:37.958Z,95978.69
2023-02-24T21:44:06.864Z,95970.92
2023-02-24T21:46:35.069Z,95973.73
2023-02-24T21:49:03.582Z,95973.95
2023-02-24T21:51:31.698Z,95977.82
2023-02-24T21:54:01.055Z,95977.02
2023-02-24T21:56:30.427Z,95972.61
2023-02-24T21:59:01.985Z,95972.62
2023-02-24T22:01:33.628Z,95973.65
2023-02-24T22:04:06.606Z,95976.45
2023-02-24T22:06:36.481Z,95981.20
2023-02-24T22:09:07.696Z,95971.98
2023-02-24T22:11:38.674Z,95969.92
2023-02-24T22:14:09.183Z,95965.16
2023-02-24T22:16:39.636Z,95965.53
2023-02-24T22:19:07.983Z,95968.84
2023-02-24T22:21:36.389Z,95967.34
2023-02-24T22:24:05.450Z,95962.83
2023-02-24T22:26:34.326Z,95964.48
2023-02-24T22:29:02.531Z,95955.84
2023-02-24T22:31:33.293Z,95962.41
2023-02-24T22:34:01.607Z,95969.27
2023-02-24T22:36:36.850Z,95975.50
2023-02-24T22:39:08.359Z,95975.89
2023-02-24T22:41:38.448Z,95970.82
2023-02-24T22:44:07.188Z,95969.35
2023-02-24T22:46:38.415Z,95964.02
2023-02-24T22:49:07.352Z,95971.81
2023-02-24T22:51:36.134Z,95967.25
2023-02-24T22:54:06.548Z,95963.29
2023-02-24T22:56:35.894Z,95961.41
2023-02-24T22:59:05.569Z,95957.23
2023-02-24T23:01:36.557Z,95946.27
2023-02-24T23:04:07.574Z,95932.45
2023-02-24T23:06:37.500Z,95931.56
2023-02-24T23:09:06.995Z,95922.96
2023-02-24T23:11:44.044Z,95909.41
2023-02-24T23:14:14.185Z,95901.87
2023-02-24T23:16:45.030Z,95906.82
2023-02-24T23:19:17.648Z,95893.80
2023-02-24T23:21:49.722Z,95889.10
2023-02-24T23:24:19.784Z,95894.09
2023-02-24T23:26:54.452Z,95888.25
2023-02-24T23:29:24.316Z,95890.13
2023-02-24T23:31:53.611Z,95882.52
2023-02-24T23:34:23.121Z,95871.05
2023-02-24T23:36:52.261Z,95877.29
2023-02-24T23:39:24.407Z,95876.27
2023-02-24T23:41:56.935Z,95878.13
2023-02-24T23:44:26.153Z,95874.20
2023-02-24T23:46:55.192Z,95870.84
2023-02-24T23:49:23.428Z,95870.25
2023-02-24T23:51:52.151Z,95878.02
2023-02-24T23:54:20.676Z,95877.39
2023-02-24T23:56:50.714Z,95855.94
2023-02-24T23:59:18.923Z,95842.49
